EJU6003 LGAV-LGMK
Flight info
| Callsign | EJU6003 |
|---|---|
| Flight time | 0h 22m |
| Altitude | 17000 |
| Route | KEA L995 VARIX |
| Aircraft | A320/M-SDE3FGHIRWY/LB1 |
Departure
| Time | 2026-04-24 10:08 |
|---|---|
| Airport | Athens Eleftherios Venizelos International Airport (LGAV) |
Arrival
| Time | 2026-04-24 10:31 |
|---|---|
| Airport | Mykonos Island National Airport (LGMK) |
| Time | Latitude | Longitude | Altitude | Speed | Heading |
|---|---|---|---|---|---|
| 2026-04-24 09:07 | 37.93460 | 23.94702 | 301 ft | 0 kts | 306° |
| 2026-04-24 09:55 | 37.93453 | 23.94714 | 303 ft | 4 kts | 304° |
| 2026-04-24 09:56 | 37.93439 | 23.94743 | 303 ft | 4 kts | 296° |
| 2026-04-24 09:56 | 37.93429 | 23.94774 | 301 ft | 4 kts | 274° |
| 2026-04-24 09:56 | 37.93434 | 23.94801 | 301 ft | 2 kts | 218° |
| 2026-04-24 09:56 | 37.93438 | 23.94806 | 301 ft | 0 kts | 217° |
| 2026-04-24 10:02 | 37.93428 | 23.94796 | 301 ft | 5 kts | 217° |
| 2026-04-24 10:02 | 37.93384 | 23.94754 | 302 ft | 11 kts | 217° |
| 2026-04-24 10:02 | 37.93316 | 23.94688 | 302 ft | 12 kts | 217° |
| 2026-04-24 10:03 | 37.93251 | 23.94626 | 301 ft | 11 kts | 217° |
| 2026-04-24 10:03 | 37.93181 | 23.94596 | 301 ft | 12 kts | 185° |
| 2026-04-24 10:03 | 37.93097 | 23.94608 | 303 ft | 12 kts | 143° |
| 2026-04-24 10:03 | 37.93029 | 23.94676 | 302 ft | 13 kts | 174° |
| 2026-04-24 10:04 | 37.92957 | 23.94624 | 301 ft | 11 kts | 217° |
| 2026-04-24 10:04 | 37.92897 | 23.94567 | 302 ft | 10 kts | 217° |
| 2026-04-24 10:04 | 37.92829 | 23.94502 | 303 ft | 16 kts | 217° |
| 2026-04-24 10:04 | 37.92730 | 23.94409 | 303 ft | 18 kts | 217° |
| 2026-04-24 10:05 | 37.92636 | 23.94320 | 304 ft | 16 kts | 217° |
| 2026-04-24 10:05 | 37.92549 | 23.94305 | 305 ft | 12 kts | 137° |
| 2026-04-24 10:05 | 37.92530 | 23.94336 | 306 ft | 0 kts | 126° |
| 2026-04-24 10:06 | 37.92530 | 23.94337 | 306 ft | 1 kts | 126° |
| 2026-04-24 10:06 | 37.92512 | 23.94367 | 307 ft | 7 kts | 126° |
| 2026-04-24 10:07 | 37.92496 | 23.94450 | 308 ft | 13 kts | 68° |
| 2026-04-24 10:07 | 37.92534 | 23.94500 | 307 ft | 0 kts | 37° |
| 2026-04-24 10:07 | 37.92543 | 23.94508 | 307 ft | 8 kts | 37° |
| 2026-04-24 10:08 | 37.92793 | 23.94744 | 300 ft | 83 kts | 37° |
| 2026-04-24 10:08 | 37.93427 | 23.95350 | 291 ft | 143 kts | 37° |
| 2026-04-24 10:08 | 37.94320 | 23.96176 | 650 ft | 164 kts | 36° |
| 2026-04-24 10:08 | 37.95237 | 23.97016 | 1453 ft | 163 kts | 34° |
| 2026-04-24 10:09 | 37.96190 | 23.97891 | 1977 ft | 178 kts | 33° |
| 2026-04-24 10:09 | 37.97254 | 23.98890 | 2330 ft | 203 kts | 37° |
| 2026-04-24 10:09 | 37.98442 | 24.00048 | 2869 ft | 227 kts | 37° |
| 2026-04-24 10:09 | 37.99718 | 24.01301 | 3769 ft | 235 kts | 37° |
| 2026-04-24 10:10 | 38.00993 | 24.02653 | 4621 ft | 248 kts | 49° |
| 2026-04-24 10:10 | 38.01781 | 24.04634 | 5437 ft | 260 kts | 78° |
| 2026-04-24 10:10 | 38.01671 | 24.06932 | 6414 ft | 268 kts | 108° |
| 2026-04-24 10:10 | 38.00674 | 24.08950 | 7344 ft | 275 kts | 127° |
| 2026-04-24 10:11 | 37.99436 | 24.10812 | 8278 ft | 279 kts | 129° |
| 2026-04-24 10:11 | 37.98155 | 24.12695 | 9209 ft | 284 kts | 128° |
| 2026-04-24 10:11 | 37.96868 | 24.14582 | 10084 ft | 289 kts | 128° |
| 2026-04-24 10:11 | 37.95515 | 24.16576 | 10553 ft | 311 kts | 129° |
| 2026-04-24 10:12 | 37.94065 | 24.18723 | 11036 ft | 327 kts | 128° |
| 2026-04-24 10:12 | 37.92569 | 24.20940 | 11773 ft | 335 kts | 128° |
| 2026-04-24 10:12 | 37.91043 | 24.23202 | 12596 ft | 339 kts | 129° |
| 2026-04-24 10:12 | 37.89500 | 24.25496 | 13398 ft | 344 kts | 129° |
| 2026-04-24 10:13 | 37.87942 | 24.27815 | 14183 ft | 348 kts | 129° |
| 2026-04-24 10:13 | 37.86362 | 24.30163 | 14868 ft | 352 kts | 130° |
| 2026-04-24 10:13 | 37.84760 | 24.32540 | 15550 ft | 357 kts | 131° |
| 2026-04-24 10:13 | 37.83141 | 24.34935 | 16242 ft | 360 kts | 131° |
| 2026-04-24 10:14 | 37.81498 | 24.37358 | 16833 ft | 365 kts | 131° |
| 2026-04-24 10:14 | 37.79845 | 24.39799 | 17002 ft | 367 kts | 133° |
| 2026-04-24 10:14 | 37.78211 | 24.42217 | 17041 ft | 354 kts | 134° |
| 2026-04-24 10:14 | 37.76626 | 24.44566 | 17044 ft | 349 kts | 134° |
| 2026-04-24 10:15 | 37.75056 | 24.46886 | 17022 ft | 347 kts | 134° |
| 2026-04-24 10:15 | 37.73487 | 24.49197 | 16539 ft | 347 kts | 134° |
| 2026-04-24 10:15 | 37.71918 | 24.51505 | 16128 ft | 345 kts | 133° |
| 2026-04-24 10:15 | 37.70358 | 24.53800 | 15728 ft | 343 kts | 133° |
| 2026-04-24 10:16 | 37.68809 | 24.56077 | 15328 ft | 341 kts | 133° |
| 2026-04-24 10:16 | 37.67267 | 24.58346 | 14939 ft | 339 kts | 132° |
| 2026-04-24 10:16 | 37.65734 | 24.60596 | 14549 ft | 338 kts | 132° |
| 2026-04-24 10:16 | 37.64202 | 24.62843 | 14158 ft | 337 kts | 131° |
| 2026-04-24 10:17 | 37.62678 | 24.65079 | 13749 ft | 335 kts | 131° |
| 2026-04-24 10:17 | 37.61164 | 24.67302 | 13324 ft | 333 kts | 131° |
| 2026-04-24 10:17 | 37.59658 | 24.69511 | 12949 ft | 330 kts | 131° |
| 2026-04-24 10:17 | 37.58163 | 24.71700 | 12536 ft | 328 kts | 130° |
| 2026-04-24 10:18 | 37.56686 | 24.73863 | 12156 ft | 325 kts | 130° |
| 2026-04-24 10:18 | 37.55214 | 24.76016 | 11740 ft | 323 kts | 131° |
| 2026-04-24 10:18 | 37.54244 | 24.77435 | 11471 ft | 322 kts | 131° |
| 2026-04-24 10:18 | 37.52785 | 24.79564 | 11071 ft | 320 kts | 131° |
| 2026-04-24 10:19 | 37.51332 | 24.81684 | 10665 ft | 319 kts | 130° |
| 2026-04-24 10:19 | 37.49424 | 24.84463 | 10163 ft | 315 kts | 130° |
| 2026-04-24 10:19 | 37.47998 | 24.86540 | 9888 ft | 308 kts | 130° |
| 2026-04-24 10:19 | 37.47069 | 24.87893 | 9685 ft | 297 kts | 130° |
| 2026-04-24 10:20 | 37.45733 | 24.89837 | 9071 ft | 291 kts | 129° |
| 2026-04-24 10:20 | 37.44428 | 24.91735 | 8622 ft | 281 kts | 129° |
| 2026-04-24 10:20 | 37.43172 | 24.93560 | 8227 ft | 270 kts | 129° |
| 2026-04-24 10:20 | 37.41964 | 24.95309 | 7856 ft | 261 kts | 129° |
| 2026-04-24 10:21 | 37.40776 | 24.97029 | 7474 ft | 260 kts | 129° |
| 2026-04-24 10:21 | 37.39608 | 24.98722 | 7097 ft | 260 kts | 129° |
| 2026-04-24 10:21 | 37.38428 | 25.00435 | 6718 ft | 259 kts | 128° |
| 2026-04-24 10:21 | 37.37246 | 25.02150 | 6312 ft | 259 kts | 129° |
| 2026-04-24 10:22 | 37.36181 | 25.03951 | 5931 ft | 255 kts | 117° |
| 2026-04-24 10:22 | 37.35385 | 25.05967 | 5751 ft | 265 kts | 112° |
| 2026-04-24 10:22 | 37.34564 | 25.08071 | 5530 ft | 269 kts | 114° |
| 2026-04-24 10:22 | 37.33732 | 25.10177 | 5317 ft | 268 kts | 113° |
| 2026-04-24 10:23 | 37.32903 | 25.12267 | 5098 ft | 267 kts | 114° |
| 2026-04-24 10:23 | 37.32075 | 25.14351 | 4879 ft | 266 kts | 113° |
| 2026-04-24 10:23 | 37.31255 | 25.16416 | 4659 ft | 264 kts | 113° |
| 2026-04-24 10:23 | 37.30436 | 25.18485 | 4424 ft | 264 kts | 112° |
| 2026-04-24 10:24 | 37.29622 | 25.20544 | 4221 ft | 263 kts | 112° |
| 2026-04-24 10:24 | 37.28806 | 25.22605 | 4000 ft | 261 kts | 114° |
| 2026-04-24 10:24 | 37.28016 | 25.24595 | 3858 ft | 249 kts | 112° |
| 2026-04-24 10:24 | 37.27272 | 25.26464 | 3725 ft | 237 kts | 112° |
| 2026-04-24 10:25 | 37.26545 | 25.28288 | 3461 ft | 232 kts | 112° |
| 2026-04-24 10:25 | 37.25903 | 25.30120 | 3209 ft | 227 kts | 103° |
| 2026-04-24 10:25 | 37.25644 | 25.32049 | 3060 ft | 222 kts | 88° |
| 2026-04-24 10:25 | 37.25771 | 25.33986 | 2637 ft | 225 kts | 72° |
| 2026-04-24 10:26 | 37.26249 | 25.35823 | 2375 ft | 218 kts | 65° |
| 2026-04-24 10:26 | 37.26750 | 25.37586 | 2228 ft | 210 kts | 66° |
| 2026-04-24 10:26 | 37.27245 | 25.39287 | 2125 ft | 203 kts | 60° |
| 2026-04-24 10:26 | 37.28133 | 25.40542 | 2035 ft | 188 kts | 28° |
| 2026-04-24 10:27 | 37.29338 | 25.40935 | 2026 ft | 174 kts | 359° |
| 2026-04-24 10:27 | 37.30469 | 25.40581 | 2010 ft | 161 kts | 343° |
| 2026-04-24 10:27 | 37.31492 | 25.40132 | 1998 ft | 152 kts | 345° |
| 2026-04-24 10:27 | 37.32480 | 25.39738 | 1963 ft | 147 kts | 347° |
| 2026-04-24 10:28 | 37.33447 | 25.39384 | 1899 ft | 143 kts | 346° |
| 2026-04-24 10:28 | 37.34383 | 25.38967 | 1833 ft | 143 kts | 342° |
| 2026-04-24 10:28 | 37.35283 | 25.38485 | 1785 ft | 139 kts | 340° |
| 2026-04-24 10:28 | 37.36136 | 25.37981 | 1722 ft | 136 kts | 340° |
| 2026-04-24 10:29 | 37.37005 | 25.37509 | 1590 ft | 133 kts | 343° |
| 2026-04-24 10:29 | 37.37862 | 25.37116 | 1454 ft | 126 kts | 345° |
| 2026-04-24 10:29 | 37.38678 | 25.36805 | 1304 ft | 120 kts | 348° |
| 2026-04-24 10:29 | 37.39473 | 25.36526 | 1157 ft | 117 kts | 347° |
| 2026-04-24 10:30 | 37.40234 | 25.36235 | 981 ft | 115 kts | 345° |
| 2026-04-24 10:30 | 37.41012 | 25.35926 | 825 ft | 119 kts | 342° |
| 2026-04-24 10:30 | 37.41799 | 25.35576 | 688 ft | 122 kts | 340° |
| 2026-04-24 10:30 | 37.42604 | 25.35223 | 521 ft | 122 kts | 341° |
| 2026-04-24 10:31 | 37.43396 | 25.34874 | 410 ft | 110 kts | 341° |
| 2026-04-24 10:31 | 37.43834 | 25.34679 | 409 ft | 21 kts | 339° |
| 2026-04-24 10:31 | 37.43957 | 25.34625 | 411 ft | 18 kts | 339° |
| 2026-04-24 10:31 | 37.44079 | 25.34569 | 408 ft | 20 kts | 340° |
| 2026-04-24 10:32 | 37.44198 | 25.34515 | 407 ft | 18 kts | 340° |
| 2026-04-24 10:32 | 37.44276 | 25.34453 | 404 ft | 13 kts | 340° |
| 2026-04-24 10:32 | 37.44295 | 25.34480 | 405 ft | 3 kts | 143° |
| 2026-04-24 10:32 | 37.44253 | 25.34496 | 405 ft | 8 kts | 164° |
| 2026-04-24 10:33 | 37.44207 | 25.34513 | 406 ft | 5 kts | 163° |
| 2026-04-24 10:33 | 37.44170 | 25.34529 | 407 ft | 7 kts | 159° |
| 2026-04-24 10:33 | 37.44105 | 25.34560 | 405 ft | 13 kts | 160° |
| 2026-04-24 10:33 | 37.44007 | 25.34604 | 410 ft | 17 kts | 161° |
| 2026-04-24 10:34 | 37.43897 | 25.34653 | 412 ft | 16 kts | 160° |
| 2026-04-24 10:34 | 37.43795 | 25.34698 | 411 ft | 15 kts | 160° |
| 2026-04-24 10:34 | 37.43696 | 25.34727 | 407 ft | 14 kts | 193° |
| 2026-04-24 10:34 | 37.43610 | 25.34672 | 408 ft | 12 kts | 205° |
| 2026-04-24 10:35 | 37.43581 | 25.34616 | 407 ft | 0 kts | 250° |